sensor_id;sensor_type;location;lat;lon;timestamp;P1;durP1;ratioP1;P2;durP2;ratioP2
13611;SDS011;6877;51.436;6.774;2024-03-22T00:01:49;36.20;;;15.82;;
13611;SDS011;6877;51.436;6.774;2024-03-22T00:04:15;31.70;;;15.75;;
13611;SDS011;6877;51.436;6.774;2024-03-22T00:06:41;34.05;;;17.27;;
13611;SDS011;6877;51.436;6.774;2024-03-22T00:09:08;37.65;;;16.58;;
13611;SDS011;6877;51.436;6.774;2024-03-22T00:11:34;36.50;;;16.05;;
13611;SDS011;6877;51.436;6.774;2024-03-22T00:14:00;33.67;;;16.33;;
13611;SDS011;6877;51.436;6.774;2024-03-22T00:16:27;35.42;;;16.65;;
13611;SDS011;6877;51.436;6.774;2024-03-22T00:18:52;34.85;;;15.52;;
13611;SDS011;6877;51.436;6.774;2024-03-22T00:21:18;34.47;;;16.80;;
13611;SDS011;6877;51.436;6.774;2024-03-22T00:23:44;48.88;;;17.38;;
13611;SDS011;6877;51.436;6.774;2024-03-22T00:26:11;37.55;;;16.48;;
13611;SDS011;6877;51.436;6.774;2024-03-22T00:28:36;37.28;;;17.38;;
13611;SDS011;6877;51.436;6.774;2024-03-22T00:31:02;38.05;;;16.58;;
13611;SDS011;6877;51.436;6.774;2024-03-22T00:33:28;31.13;;;14.55;;
13611;SDS011;6877;51.436;6.774;2024-03-22T00:35:53;32.47;;;15.63;;
13611;SDS011;6877;51.436;6.774;2024-03-22T00:38:19;38.45;;;17.05;;
13611;SDS011;6877;51.436;6.774;2024-03-22T00:40:44;37.65;;;16.70;;
13611;SDS011;6877;51.436;6.774;2024-03-22T00:43:10;34.58;;;15.75;;
13611;SDS011;6877;51.436;6.774;2024-03-22T00:45:36;36.35;;;17.10;;
13611;SDS011;6877;51.436;6.774;2024-03-22T00:48:01;35.55;;;15.90;;
13611;SDS011;6877;51.436;6.774;2024-03-22T00:50:27;35.53;;;15.48;;
13611;SDS011;6877;51.436;6.774;2024-03-22T00:52:53;37.47;;;17.92;;
13611;SDS011;6877;51.436;6.774;2024-03-22T00:55:21;36.83;;;17.25;;
13611;SDS011;6877;51.436;6.774;2024-03-22T00:57:47;35.40;;;16.45;;
13611;SDS011;6877;51.436;6.774;2024-03-22T01:00:13;37.42;;;18.05;;
13611;SDS011;6877;51.436;6.774;2024-03-22T01:02:39;29.95;;;15.50;;
13611;SDS011;6877;51.436;6.774;2024-03-22T01:05:05;33.42;;;15.55;;
13611;SDS011;6877;51.436;6.774;2024-03-22T01:07:31;41.08;;;16.58;;
13611;SDS011;6877;51.436;6.774;2024-03-22T01:09:57;29.27;;;14.80;;
13611;SDS011;6877;51.436;6.774;2024-03-22T01:12:22;37.78;;;17.23;;
13611;SDS011;6877;51.436;6.774;2024-03-22T01:14:48;29.90;;;14.15;;
13611;SDS011;6877;51.436;6.774;2024-03-22T01:17:14;35.28;;;16.15;;
13611;SDS011;6877;51.436;6.774;2024-03-22T01:19:39;32.55;;;18.13;;
13611;SDS011;6877;51.436;6.774;2024-03-22T01:22:05;37.72;;;18.02;;
13611;SDS011;6877;51.436;6.774;2024-03-22T01:24:30;37.03;;;16.05;;
13611;SDS011;6877;51.436;6.774;2024-03-22T01:26:56;35.45;;;15.98;;
13611;SDS011;6877;51.436;6.774;2024-03-22T01:29:21;36.50;;;16.73;;
13611;SDS011;6877;51.436;6.774;2024-03-22T01:31:47;40.38;;;17.92;;
13611;SDS011;6877;51.436;6.774;2024-03-22T01:34:13;44.42;;;16.98;;
13611;SDS011;6877;51.436;6.774;2024-03-22T01:36:40;38.40;;;17.83;;
13611;SDS011;6877;51.436;6.774;2024-03-22T01:39:05;35.72;;;16.38;;
13611;SDS011;6877;51.436;6.774;2024-03-22T01:41:31;40.08;;;17.45;;
13611;SDS011;6877;51.436;6.774;2024-03-22T01:43:57;40.30;;;16.67;;
13611;SDS011;6877;51.436;6.774;2024-03-22T01:46:23;43.92;;;18.33;;
13611;SDS011;6877;51.436;6.774;2024-03-22T01:48:49;34.83;;;15.45;;
13611;SDS011;6877;51.436;6.774;2024-03-22T01:51:15;33.70;;;16.83;;
13611;SDS011;6877;51.436;6.774;2024-03-22T01:53:41;34.03;;;15.75;;
13611;SDS011;6877;51.436;6.774;2024-03-22T01:56:07;35.10;;;16.98;;
13611;SDS011;6877;51.436;6.774;2024-03-22T01:58:33;39.10;;;17.58;;
13611;SDS011;6877;51.436;6.774;2024-03-22T02:00:58;38.80;;;17.83;;
13611;SDS011;6877;51.436;6.774;2024-03-22T02:03:24;37.60;;;17.30;;
13611;SDS011;6877;51.436;6.774;2024-03-22T02:05:50;40.38;;;18.70;;
13611;SDS011;6877;51.436;6.774;2024-03-22T02:08:15;34.03;;;16.40;;
13611;SDS011;6877;51.436;6.774;2024-03-22T02:10:41;43.72;;;18.35;;
13611;SDS011;6877;51.436;6.774;2024-03-22T02:13:07;52.05;;;18.73;;
13611;SDS011;6877;51.436;6.774;2024-03-22T02:15:32;39.55;;;15.38;;
13611;SDS011;6877;51.436;6.774;2024-03-22T02:17:58;32.40;;;17.98;;
13611;SDS011;6877;51.436;6.774;2024-03-22T02:20:23;39.25;;;17.17;;
13611;SDS011;6877;51.436;6.774;2024-03-22T02:22:49;39.20;;;16.73;;
13611;SDS011;6877;51.436;6.774;2024-03-22T02:25:15;39.08;;;16.70;;
13611;SDS011;6877;51.436;6.774;2024-03-22T02:27:40;41.53;;;17.65;;
13611;SDS011;6877;51.436;6.774;2024-03-22T02:30:06;31.98;;;14.43;;
13611;SDS011;6877;51.436;6.774;2024-03-22T02:32:32;45.28;;;19.33;;
13611;SDS011;6877;51.436;6.774;2024-03-22T02:34:58;38.70;;;18.30;;
13611;SDS011;6877;51.436;6.774;2024-03-22T02:37:24;42.35;;;17.23;;
13611;SDS011;6877;51.436;6.774;2024-03-22T02:39:49;39.40;;;17.10;;
13611;SDS011;6877;51.436;6.774;2024-03-22T02:42:15;41.92;;;16.90;;
13611;SDS011;6877;51.436;6.774;2024-03-22T02:44:40;34.15;;;17.20;;
13611;SDS011;6877;51.436;6.774;2024-03-22T02:47:11;41.20;;;17.48;;
13611;SDS011;6877;51.436;6.774;2024-03-22T02:49:38;36.53;;;17.08;;
13611;SDS011;6877;51.436;6.774;2024-03-22T02:52:04;41.85;;;16.40;;
13611;SDS011;6877;51.436;6.774;2024-03-22T02:54:29;42.22;;;16.30;;
13611;SDS011;6877;51.436;6.774;2024-03-22T02:56:55;39.08;;;16.83;;
13611;SDS011;6877;51.436;6.774;2024-03-22T02:59:21;35.78;;;16.67;;
13611;SDS011;6877;51.436;6.774;2024-03-22T03:01:46;36.72;;;15.55;;
13611;SDS011;6877;51.436;6.774;2024-03-22T03:04:12;38.47;;;17.10;;
13611;SDS011;6877;51.436;6.774;2024-03-22T03:06:38;34.30;;;16.50;;
13611;SDS011;6877;51.436;6.774;2024-03-22T03:09:03;32.40;;;15.35;;
13611;SDS011;6877;51.436;6.774;2024-03-22T03:11:39;32.10;;;16.25;;
13611;SDS011;6877;51.436;6.774;2024-03-22T03:14:05;38.55;;;18.08;;
13611;SDS011;6877;51.436;6.774;2024-03-22T03:16:30;32.10;;;14.90;;
13611;SDS011;6877;51.436;6.774;2024-03-22T03:18:56;38.67;;;17.15;;
13611;SDS011;6877;51.436;6.774;2024-03-22T03:21:22;37.65;;;18.45;;
13611;SDS011;6877;51.436;6.774;2024-03-22T03:23:47;35.15;;;15.02;;
13611;SDS011;6877;51.436;6.774;2024-03-22T03:26:13;34.78;;;15.38;;
13611;SDS011;6877;51.436;6.774;2024-03-22T03:28:39;43.58;;;17.15;;
13611;SDS011;6877;51.436;6.774;2024-03-22T03:31:04;43.65;;;15.45;;
13611;SDS011;6877;51.436;6.774;2024-03-22T03:33:30;41.45;;;16.70;;
13611;SDS011;6877;51.436;6.774;2024-03-22T03:35:56;37.65;;;18.50;;
13611;SDS011;6877;51.436;6.774;2024-03-22T03:38:22;32.13;;;16.23;;
13611;SDS011;6877;51.436;6.774;2024-03-22T03:40:47;34.78;;;17.75;;
13611;SDS011;6877;51.436;6.774;2024-03-22T03:43:13;39.30;;;16.55;;
13611;SDS011;6877;51.436;6.774;2024-03-22T03:45:39;33.30;;;16.33;;
13611;SDS011;6877;51.436;6.774;2024-03-22T03:48:05;33.58;;;17.08;;
13611;SDS011;6877;51.436;6.774;2024-03-22T03:50:30;37.72;;;16.83;;
13611;SDS011;6877;51.436;6.774;2024-03-22T03:52:56;38.00;;;15.93;;
13611;SDS011;6877;51.436;6.774;2024-03-22T03:55:22;36.42;;;17.30;;
13611;SDS011;6877;51.436;6.774;2024-03-22T03:57:51;44.38;;;17.10;;
13611;SDS011;6877;51.436;6.774;2024-03-22T04:00:18;36.78;;;17.08;;
13611;SDS011;6877;51.436;6.774;2024-03-22T04:02:44;34.15;;;15.45;;
13611;SDS011;6877;51.436;6.774;2024-03-22T04:05:10;36.40;;;16.50;;
13611;SDS011;6877;51.436;6.774;2024-03-22T04:07:36;38.97;;;15.88;;
13611;SDS011;6877;51.436;6.774;2024-03-22T04:10:02;42.22;;;16.80;;
13611;SDS011;6877;51.436;6.774;2024-03-22T04:12:28;40.92;;;16.45;;
13611;SDS011;6877;51.436;6.774;2024-03-22T04:14:55;37.55;;;17.17;;
13611;SDS011;6877;51.436;6.774;2024-03-22T04:17:21;37.67;;;16.88;;
13611;SDS011;6877;51.436;6.774;2024-03-22T04:19:48;41.10;;;16.23;;
13611;SDS011;6877;51.436;6.774;2024-03-22T04:22:14;40.05;;;16.40;;
13611;SDS011;6877;51.436;6.774;2024-03-22T04:24:40;36.28;;;14.95;;
13611;SDS011;6877;51.436;6.774;2024-03-22T04:27:05;36.58;;;16.13;;
13611;SDS011;6877;51.436;6.774;2024-03-22T04:29:32;41.20;;;18.02;;
13611;SDS011;6877;51.436;6.774;2024-03-22T04:31:58;34.38;;;16.13;;
13611;SDS011;6877;51.436;6.774;2024-03-22T04:34:23;37.60;;;16.48;;
13611;SDS011;6877;51.436;6.774;2024-03-22T04:36:50;37.35;;;15.93;;
13611;SDS011;6877;51.436;6.774;2024-03-22T04:39:18;40.92;;;15.15;;
13611;SDS011;6877;51.436;6.774;2024-03-22T04:41:47;41.17;;;17.08;;
13611;SDS011;6877;51.436;6.774;2024-03-22T04:44:13;35.60;;;14.85;;
13611;SDS011;6877;51.436;6.774;2024-03-22T04:46:38;41.20;;;17.02;;
13611;SDS011;6877;51.436;6.774;2024-03-22T04:49:04;37.42;;;17.13;;
13611;SDS011;6877;51.436;6.774;2024-03-22T04:51:29;36.30;;;15.68;;
13611;SDS011;6877;51.436;6.774;2024-03-22T04:53:55;36.97;;;15.27;;
13611;SDS011;6877;51.436;6.774;2024-03-22T04:56:21;31.35;;;15.48;;
13611;SDS011;6877;51.436;6.774;2024-03-22T04:58:46;37.35;;;15.90;;
13611;SDS011;6877;51.436;6.774;2024-03-22T05:01:12;37.47;;;15.55;;
13611;SDS011;6877;51.436;6.774;2024-03-22T05:03:38;44.33;;;15.73;;
13611;SDS011;6877;51.436;6.774;2024-03-22T05:06:04;37.72;;;15.60;;
13611;SDS011;6877;51.436;6.774;2024-03-22T05:08:31;35.15;;;15.98;;
13611;SDS011;6877;51.436;6.774;2024-03-22T05:10:57;41.80;;;17.08;;
13611;SDS011;6877;51.436;6.774;2024-03-22T05:13:22;37.10;;;19.60;;
13611;SDS011;6877;51.436;6.774;2024-03-22T05:15:48;37.30;;;15.82;;
13611;SDS011;6877;51.436;6.774;2024-03-22T05:18:14;37.83;;;16.33;;
13611;SDS011;6877;51.436;6.774;2024-03-22T05:20:39;33.65;;;16.27;;
13611;SDS011;6877;51.436;6.774;2024-03-22T05:23:05;36.38;;;17.05;;
13611;SDS011;6877;51.436;6.774;2024-03-22T05:25:30;35.80;;;16.67;;
13611;SDS011;6877;51.436;6.774;2024-03-22T05:27:56;34.63;;;15.70;;
13611;SDS011;6877;51.436;6.774;2024-03-22T05:30:22;30.63;;;15.55;;
13611;SDS011;6877;51.436;6.774;2024-03-22T05:32:47;36.08;;;18.83;;
13611;SDS011;6877;51.436;6.774;2024-03-22T05:35:15;39.80;;;17.10;;
13611;SDS011;6877;51.436;6.774;2024-03-22T05:37:41;37.25;;;17.58;;
13611;SDS011;6877;51.436;6.774;2024-03-22T05:40:07;38.90;;;16.63;;
13611;SDS011;6877;51.436;6.774;2024-03-22T05:42:34;38.90;;;19.27;;
13611;SDS011;6877;51.436;6.774;2024-03-22T05:44:59;35.20;;;17.67;;
13611;SDS011;6877;51.436;6.774;2024-03-22T05:47:25;35.58;;;16.33;;
13611;SDS011;6877;51.436;6.774;2024-03-22T05:49:51;47.75;;;16.52;;
13611;SDS011;6877;51.436;6.774;2024-03-22T05:52:17;36.30;;;18.52;;
13611;SDS011;6877;51.436;6.774;2024-03-22T05:54:43;33.90;;;16.42;;
13611;SDS011;6877;51.436;6.774;2024-03-22T05:57:09;38.72;;;17.33;;
13611;SDS011;6877;51.436;6.774;2024-03-22T05:59:35;35.65;;;17.45;;
13611;SDS011;6877;51.436;6.774;2024-03-22T06:02:01;40.58;;;16.38;;
13611;SDS011;6877;51.436;6.774;2024-03-22T06:04:26;38.70;;;17.35;;
13611;SDS011;6877;51.436;6.774;2024-03-22T06:06:52;29.92;;;16.10;;
13611;SDS011;6877;51.436;6.774;2024-03-22T06:09:18;40.17;;;16.63;;
13611;SDS011;6877;51.436;6.774;2024-03-22T06:11:59;38.25;;;15.45;;
13611;SDS011;6877;51.436;6.774;2024-03-22T06:14:24;35.67;;;17.50;;
13611;SDS011;6877;51.436;6.774;2024-03-22T06:16:50;36.05;;;15.50;;
13611;SDS011;6877;51.436;6.774;2024-03-22T06:19:15;31.55;;;15.90;;
13611;SDS011;6877;51.436;6.774;2024-03-22T06:21:41;40.28;;;16.60;;
13611;SDS011;6877;51.436;6.774;2024-03-22T06:24:06;35.38;;;16.50;;
13611;SDS011;6877;51.436;6.774;2024-03-22T06:26:32;35.75;;;15.85;;
13611;SDS011;6877;51.436;6.774;2024-03-22T06:28:58;31.95;;;15.60;;
13611;SDS011;6877;51.436;6.774;2024-03-22T06:31:23;35.58;;;15.30;;
13611;SDS011;6877;51.436;6.774;2024-03-22T06:33:49;29.05;;;14.55;;
13611;SDS011;6877;51.436;6.774;2024-03-22T06:36:15;29.38;;;14.73;;
13611;SDS011;6877;51.436;6.774;2024-03-22T06:38:41;28.35;;;15.57;;
13611;SDS011;6877;51.436;6.774;2024-03-22T06:41:06;34.75;;;13.95;;
13611;SDS011;6877;51.436;6.774;2024-03-22T06:43:32;26.73;;;13.90;;
13611;SDS011;6877;51.436;6.774;2024-03-22T06:45:58;30.05;;;14.43;;
13611;SDS011;6877;51.436;6.774;2024-03-22T06:48:24;36.50;;;14.05;;
13611;SDS011;6877;51.436;6.774;2024-03-22T06:50:49;28.67;;;15.05;;
13611;SDS011;6877;51.436;6.774;2024-03-22T06:53:15;29.90;;;14.63;;
13611;SDS011;6877;51.436;6.774;2024-03-22T06:55:40;30.92;;;13.95;;
13611;SDS011;6877;51.436;6.774;2024-03-22T06:58:06;28.23;;;13.93;;
13611;SDS011;6877;51.436;6.774;2024-03-22T07:00:32;23.98;;;12.32;;
13611;SDS011;6877;51.436;6.774;2024-03-22T07:03:01;28.60;;;14.27;;
13611;SDS011;6877;51.436;6.774;2024-03-22T07:05:27;25.42;;;12.45;;
13611;SDS011;6877;51.436;6.774;2024-03-22T07:07:54;28.85;;;13.48;;
13611;SDS011;6877;51.436;6.774;2024-03-22T07:10:22;25.02;;;12.57;;
13611;SDS011;6877;51.436;6.774;2024-03-22T07:12:53;24.98;;;11.57;;
13611;SDS011;6877;51.436;6.774;2024-03-22T07:15:25;28.67;;;13.90;;
13611;SDS011;6877;51.436;6.774;2024-03-22T07:17:51;30.40;;;12.55;;
13611;SDS011;6877;51.436;6.774;2024-03-22T07:20:17;27.00;;;14.40;;
13611;SDS011;6877;51.436;6.774;2024-03-22T07:22:44;21.38;;;11.98;;
13611;SDS011;6877;51.436;6.774;2024-03-22T07:25:09;24.92;;;12.45;;
13611;SDS011;6877;51.436;6.774;2024-03-22T07:27:35;23.65;;;12.48;;
13611;SDS011;6877;51.436;6.774;2024-03-22T07:30:02;26.38;;;11.95;;
13611;SDS011;6877;51.436;6.774;2024-03-22T07:32:28;25.60;;;11.70;;
13611;SDS011;6877;51.436;6.774;2024-03-22T07:34:57;25.60;;;12.70;;
13611;SDS011;6877;51.436;6.774;2024-03-22T07:37:23;21.80;;;11.65;;
13611;SDS011;6877;51.436;6.774;2024-03-22T07:39:48;28.63;;;13.30;;
13611;SDS011;6877;51.436;6.774;2024-03-22T07:42:14;22.02;;;12.00;;
13611;SDS011;6877;51.436;6.774;2024-03-22T07:44:40;22.17;;;11.68;;
13611;SDS011;6877;51.436;6.774;2024-03-22T07:47:06;20.23;;;10.25;;
13611;SDS011;6877;51.436;6.774;2024-03-22T07:49:31;25.63;;;12.93;;
13611;SDS011;6877;51.436;6.774;2024-03-22T07:51:59;25.83;;;10.68;;
13611;SDS011;6877;51.436;6.774;2024-03-22T07:54:25;21.33;;;11.98;;
13611;SDS011;6877;51.436;6.774;2024-03-22T07:56:51;24.05;;;11.55;;
13611;SDS011;6877;51.436;6.774;2024-03-22T07:59:16;18.55;;;10.52;;
13611;SDS011;6877;51.436;6.774;2024-03-22T08:01:42;25.58;;;13.88;;
13611;SDS011;6877;51.436;6.774;2024-03-22T08:04:07;23.55;;;12.07;;
13611;SDS011;6877;51.436;6.774;2024-03-22T08:06:33;30.73;;;12.75;;
13611;SDS011;6877;51.436;6.774;2024-03-22T08:08:59;23.85;;;11.07;;
13611;SDS011;6877;51.436;6.774;2024-03-22T08:11:26;27.23;;;10.38;;
13611;SDS011;6877;51.436;6.774;2024-03-22T08:13:52;25.35;;;10.95;;
13611;SDS011;6877;51.436;6.774;2024-03-22T08:16:18;23.05;;;10.40;;
13611;SDS011;6877;51.436;6.774;2024-03-22T08:18:45;21.33;;;10.82;;
13611;SDS011;6877;51.436;6.774;2024-03-22T08:21:10;19.55;;;10.55;;
13611;SDS011;6877;51.436;6.774;2024-03-22T08:23:36;18.13;;;10.38;;
13611;SDS011;6877;51.436;6.774;2024-03-22T08:26:01;29.10;;;11.23;;
13611;SDS011;6877;51.436;6.774;2024-03-22T08:28:27;20.70;;;9.85;;
13611;SDS011;6877;51.436;6.774;2024-03-22T08:30:53;18.00;;;10.10;;
13611;SDS011;6877;51.436;6.774;2024-03-22T08:33:18;18.67;;;9.88;;
13611;SDS011;6877;51.436;6.774;2024-03-22T08:35:44;21.05;;;9.90;;
13611;SDS011;6877;51.436;6.774;2024-03-22T08:38:10;19.90;;;8.77;;
13611;SDS011;6877;51.436;6.774;2024-03-22T08:40:39;17.92;;;8.70;;
13611;SDS011;6877;51.436;6.774;2024-03-22T08:43:05;17.02;;;8.60;;
13611;SDS011;6877;51.436;6.774;2024-03-22T08:45:32;19.75;;;10.73;;
13611;SDS011;6877;51.436;6.774;2024-03-22T08:47:58;38.30;;;14.23;;
13611;SDS011;6877;51.436;6.774;2024-03-22T08:50:24;28.48;;;11.18;;
13611;SDS011;6877;51.436;6.774;2024-03-22T08:52:50;17.48;;;8.60;;
13611;SDS011;6877;51.436;6.774;2024-03-22T08:55:16;18.42;;;8.80;;
13611;SDS011;6877;51.436;6.774;2024-03-22T08:57:42;18.20;;;8.77;;
13611;SDS011;6877;51.436;6.774;2024-03-22T09:00:09;26.33;;;10.07;;
13611;SDS011;6877;51.436;6.774;2024-03-22T09:02:36;17.35;;;9.38;;
13611;SDS011;6877;51.436;6.774;2024-03-22T09:05:03;20.75;;;8.82;;
13611;SDS011;6877;51.436;6.774;2024-03-22T09:07:30;20.35;;;10.23;;
13611;SDS011;6877;51.436;6.774;2024-03-22T09:09:55;21.35;;;9.88;;
13611;SDS011;6877;51.436;6.774;2024-03-22T09:12:21;18.25;;;8.50;;
13611;SDS011;6877;51.436;6.774;2024-03-22T09:14:46;19.48;;;8.32;;
13611;SDS011;6877;51.436;6.774;2024-03-22T09:17:12;14.57;;;6.85;;
13611;SDS011;6877;51.436;6.774;2024-03-22T09:19:37;18.55;;;9.05;;
13611;SDS011;6877;51.436;6.774;2024-03-22T09:22:03;15.48;;;7.80;;
13611;SDS011;6877;51.436;6.774;2024-03-22T09:24:29;15.23;;;7.97;;
13611;SDS011;6877;51.436;6.774;2024-03-22T09:26:54;16.25;;;7.10;;
13611;SDS011;6877;51.436;6.774;2024-03-22T09:29:20;16.05;;;7.30;;
13611;SDS011;6877;51.436;6.774;2024-03-22T09:31:46;12.18;;;7.38;;
13611;SDS011;6877;51.436;6.774;2024-03-22T09:34:12;10.57;;;6.65;;
13611;SDS011;6877;51.436;6.774;2024-03-22T09:36:38;13.32;;;6.05;;
13611;SDS011;6877;51.436;6.774;2024-03-22T09:39:04;15.05;;;7.78;;
13611;SDS011;6877;51.436;6.774;2024-03-22T09:41:31;13.23;;;7.15;;
13611;SDS011;6877;51.436;6.774;2024-03-22T09:43:58;19.23;;;7.78;;
13611;SDS011;6877;51.436;6.774;2024-03-22T09:46:25;15.48;;;8.23;;
13611;SDS011;6877;51.436;6.774;2024-03-22T09:48:52;18.90;;;8.15;;
13611;SDS011;6877;51.436;6.774;2024-03-22T09:51:19;22.33;;;9.02;;
13611;SDS011;6877;51.436;6.774;2024-03-22T09:53:49;15.90;;;8.45;;
13611;SDS011;6877;51.436;6.774;2024-03-22T09:56:17;15.85;;;8.55;;
13611;SDS011;6877;51.436;6.774;2024-03-22T09:58:46;18.50;;;8.43;;
13611;SDS011;6877;51.436;6.774;2024-03-22T10:01:12;16.10;;;8.10;;
13611;SDS011;6877;51.436;6.774;2024-03-22T10:03:37;16.80;;;7.85;;
13611;SDS011;6877;51.436;6.774;2024-03-22T10:06:03;19.20;;;7.97;;
13611;SDS011;6877;51.436;6.774;2024-03-22T10:08:29;19.90;;;10.02;;
13611;SDS011;6877;51.436;6.774;2024-03-22T10:10:55;15.48;;;9.05;;
13611;SDS011;6877;51.436;6.774;2024-03-22T10:13:21;19.40;;;8.82;;
13611;SDS011;6877;51.436;6.774;2024-03-22T10:15:47;19.38;;;9.18;;
13611;SDS011;6877;51.436;6.774;2024-03-22T10:18:13;16.90;;;8.18;;
13611;SDS011;6877;51.436;6.774;2024-03-22T10:20:40;18.77;;;8.00;;
13611;SDS011;6877;51.436;6.774;2024-03-22T10:23:07;16.95;;;8.85;;
13611;SDS011;6877;51.436;6.774;2024-03-22T10:25:34;21.48;;;9.02;;
13611;SDS011;6877;51.436;6.774;2024-03-22T10:28:00;17.80;;;9.07;;
13611;SDS011;6877;51.436;6.774;2024-03-22T10:30:25;16.48;;;7.78;;
13611;SDS011;6877;51.436;6.774;2024-03-22T10:32:52;18.05;;;8.65;;
13611;SDS011;6877;51.436;6.774;2024-03-22T10:35:17;18.30;;;9.30;;
13611;SDS011;6877;51.436;6.774;2024-03-22T10:37:43;18.23;;;8.65;;
13611;SDS011;6877;51.436;6.774;2024-03-22T10:40:10;13.73;;;7.93;;
13611;SDS011;6877;51.436;6.774;2024-03-22T10:42:40;14.50;;;7.80;;
13611;SDS011;6877;51.436;6.774;2024-03-22T10:45:07;15.90;;;7.90;;
13611;SDS011;6877;51.436;6.774;2024-03-22T10:47:34;13.63;;;7.55;;
13611;SDS011;6877;51.436;6.774;2024-03-22T10:50:07;17.88;;;6.90;;
13611;SDS011;6877;51.436;6.774;2024-03-22T10:52:36;11.23;;;6.85;;
13611;SDS011;6877;51.436;6.774;2024-03-22T10:55:04;13.82;;;7.15;;
13611;SDS011;6877;51.436;6.774;2024-03-22T10:57:32;13.27;;;6.65;;
13611;SDS011;6877;51.436;6.774;2024-03-22T11:00:02;18.77;;;7.32;;
13611;SDS011;6877;51.436;6.774;2024-03-22T11:02:37;11.73;;;6.97;;
13611;SDS011;6877;51.436;6.774;2024-03-22T11:05:04;13.20;;;7.40;;
13611;SDS011;6877;51.436;6.774;2024-03-22T11:07:31;14.85;;;6.78;;
13611;SDS011;6877;51.436;6.774;2024-03-22T11:09:57;13.55;;;7.65;;
13611;SDS011;6877;51.436;6.774;2024-03-22T11:12:25;15.02;;;7.78;;
13611;SDS011;6877;51.436;6.774;2024-03-22T11:14:52;17.02;;;8.45;;
13611;SDS011;6877;51.436;6.774;2024-03-22T11:17:18;16.10;;;8.38;;
13611;SDS011;6877;51.436;6.774;2024-03-22T11:19:44;14.98;;;8.25;;
13611;SDS011;6877;51.436;6.774;2024-03-22T11:22:10;13.98;;;8.00;;
13611;SDS011;6877;51.436;6.774;2024-03-22T11:24:40;18.65;;;7.47;;
13611;SDS011;6877;51.436;6.774;2024-03-22T11:27:06;11.30;;;6.47;;
13611;SDS011;6877;51.436;6.774;2024-03-22T11:29:32;17.92;;;6.90;;
13611;SDS011;6877;51.436;6.774;2024-03-22T11:31:59;13.55;;;7.43;;
13611;SDS011;6877;51.436;6.774;2024-03-22T11:34:25;15.77;;;7.00;;
13611;SDS011;6877;51.436;6.774;2024-03-22T11:36:53;15.27;;;7.18;;
13611;SDS011;6877;51.436;6.774;2024-03-22T11:39:19;13.90;;;7.82;;
13611;SDS011;6877;51.436;6.774;2024-03-22T11:41:45;16.10;;;8.40;;
13611;SDS011;6877;51.436;6.774;2024-03-22T11:44:14;14.38;;;8.43;;
13611;SDS011;6877;51.436;6.774;2024-03-22T11:46:41;14.18;;;7.70;;
13611;SDS011;6877;51.436;6.774;2024-03-22T11:49:07;16.75;;;8.55;;
13611;SDS011;6877;51.436;6.774;2024-03-22T11:51:33;14.07;;;8.45;;
13611;SDS011;6877;51.436;6.774;2024-03-22T11:53:59;17.13;;;8.77;;
13611;SDS011;6877;51.436;6.774;2024-03-22T11:56:28;16.23;;;7.93;;
13611;SDS011;6877;51.436;6.774;2024-03-22T11:59:00;19.80;;;8.63;;
13611;SDS011;6877;51.436;6.774;2024-03-22T12:01:26;16.05;;;8.95;;
13611;SDS011;6877;51.436;6.774;2024-03-22T12:03:53;17.23;;;8.32;;
13611;SDS011;6877;51.436;6.774;2024-03-22T12:06:20;16.55;;;7.05;;
13611;SDS011;6877;51.436;6.774;2024-03-22T12:08:46;28.08;;;8.82;;
13611;SDS011;6877;51.436;6.774;2024-03-22T12:11:12;15.57;;;9.30;;
13611;SDS011;6877;51.436;6.774;2024-03-22T12:13:38;22.25;;;10.93;;
13611;SDS011;6877;51.436;6.774;2024-03-22T12:16:04;27.17;;;11.88;;
13611;SDS011;6877;51.436;6.774;2024-03-22T12:18:31;17.17;;;9.63;;
13611;SDS011;6877;51.436;6.774;2024-03-22T12:20:56;19.67;;;9.38;;
13611;SDS011;6877;51.436;6.774;2024-03-22T12:23:22;39.70;;;10.27;;
13611;SDS011;6877;51.436;6.774;2024-03-22T12:25:49;25.70;;;10.23;;
13611;SDS011;6877;51.436;6.774;2024-03-22T12:28:15;17.92;;;9.25;;
13611;SDS011;6877;51.436;6.774;2024-03-22T12:30:41;22.17;;;9.55;;
13611;SDS011;6877;51.436;6.774;2024-03-22T12:33:07;17.65;;;10.00;;
13611;SDS011;6877;51.436;6.774;2024-03-22T12:35:36;21.60;;;10.20;;
13611;SDS011;6877;51.436;6.774;2024-03-22T12:38:02;20.83;;;9.63;;
13611;SDS011;6877;51.436;6.774;2024-03-22T12:40:28;18.58;;;8.70;;
13611;SDS011;6877;51.436;6.774;2024-03-22T12:42:55;21.27;;;9.45;;
13611;SDS011;6877;51.436;6.774;2024-03-22T12:45:21;20.33;;;9.32;;
13611;SDS011;6877;51.436;6.774;2024-03-22T12:47:47;18.88;;;9.32;;
13611;SDS011;6877;51.436;6.774;2024-03-22T12:50:13;18.35;;;8.93;;
13611;SDS011;6877;51.436;6.774;2024-03-22T12:52:39;14.68;;;8.82;;
13611;SDS011;6877;51.436;6.774;2024-03-22T12:55:05;19.02;;;9.18;;
13611;SDS011;6877;51.436;6.774;2024-03-22T12:57:31;25.58;;;10.30;;
13611;SDS011;6877;51.436;6.774;2024-03-22T12:59:57;17.55;;;10.48;;
13611;SDS011;6877;51.436;6.774;2024-03-22T13:02:23;15.00;;;9.38;;
13611;SDS011;6877;51.436;6.774;2024-03-22T13:04:51;21.13;;;9.57;;
13611;SDS011;6877;51.436;6.774;2024-03-22T13:07:19;16.60;;;9.45;;
13611;SDS011;6877;51.436;6.774;2024-03-22T13:09:45;17.90;;;10.18;;
13611;SDS011;6877;51.436;6.774;2024-03-22T13:12:10;17.17;;;9.00;;
13611;SDS011;6877;51.436;6.774;2024-03-22T13:14:36;21.15;;;10.10;;
13611;SDS011;6877;51.436;6.774;2024-03-22T13:17:02;23.92;;;11.35;;
13611;SDS011;6877;51.436;6.774;2024-03-22T13:19:27;15.55;;;9.30;;
13611;SDS011;6877;51.436;6.774;2024-03-22T13:21:53;18.45;;;9.98;;
13611;SDS011;6877;51.436;6.774;2024-03-22T13:24:19;17.48;;;9.60;;
13611;SDS011;6877;51.436;6.774;2024-03-22T13:26:44;18.48;;;10.65;;
13611;SDS011;6877;51.436;6.774;2024-03-22T13:29:10;15.02;;;8.75;;
13611;SDS011;6877;51.436;6.774;2024-03-22T13:31:39;19.70;;;9.77;;
13611;SDS011;6877;51.436;6.774;2024-03-22T13:34:05;17.58;;;9.50;;
13611;SDS011;6877;51.436;6.774;2024-03-22T13:36:33;17.50;;;9.65;;
13611;SDS011;6877;51.436;6.774;2024-03-22T13:38:59;15.15;;;8.52;;
13611;SDS011;6877;51.436;6.774;2024-03-22T13:41:25;17.83;;;10.50;;
13611;SDS011;6877;51.436;6.774;2024-03-22T13:43:50;19.30;;;10.45;;
13611;SDS011;6877;51.436;6.774;2024-03-22T13:46:16;18.83;;;8.95;;
13611;SDS011;6877;51.436;6.774;2024-03-22T13:48:42;18.17;;;9.23;;
13611;SDS011;6877;51.436;6.774;2024-03-22T13:51:08;18.23;;;9.57;;
13611;SDS011;6877;51.436;6.774;2024-03-22T13:53:34;13.95;;;8.50;;
13611;SDS011;6877;51.436;6.774;2024-03-22T13:56:00;16.95;;;9.10;;
13611;SDS011;6877;51.436;6.774;2024-03-22T13:58:26;14.68;;;8.80;;
13611;SDS011;6877;51.436;6.774;2024-03-22T14:00:52;17.95;;;10.55;;
13611;SDS011;6877;51.436;6.774;2024-03-22T14:03:18;15.35;;;8.68;;
13611;SDS011;6877;51.436;6.774;2024-03-22T14:05:44;15.02;;;8.82;;
13611;SDS011;6877;51.436;6.774;2024-03-22T14:08:09;20.58;;;9.85;;
13611;SDS011;6877;51.436;6.774;2024-03-22T14:10:35;19.08;;;10.50;;
13611;SDS011;6877;51.436;6.774;2024-03-22T14:13:01;18.77;;;10.27;;
13611;SDS011;6877;51.436;6.774;2024-03-22T14:15:27;17.63;;;10.45;;
13611;SDS011;6877;51.436;6.774;2024-03-22T14:17:56;19.88;;;9.75;;
13611;SDS011;6877;51.436;6.774;2024-03-22T14:20:23;18.60;;;10.82;;
13611;SDS011;6877;51.436;6.774;2024-03-22T14:22:50;28.60;;;11.63;;
13611;SDS011;6877;51.436;6.774;2024-03-22T14:25:16;20.00;;;10.57;;
13611;SDS011;6877;51.436;6.774;2024-03-22T14:27:42;20.42;;;10.15;;
13611;SDS011;6877;51.436;6.774;2024-03-22T14:30:11;18.67;;;10.38;;
13611;SDS011;6877;51.436;6.774;2024-03-22T14:32:40;18.63;;;10.27;;